Gandhi — A8OK8 — position and weather

sailwx.info

Track history (hours):
 
Tides and Currents Weather Stations Pressure Air Temp Water Temp Dewpoint Dewpoint Depression Visibility Wind Speed Wind Dir Waves Ship Positions

Gandhi

Last reported at 2015-May-12 20:27 UTC. Time now 2015-May-22 11:33 UTC.
Position N 31°16' W 011°05'.
Warning: this ship's position is 9 days out of date.

Length 180 m; draft 10.2 m.

Type: Ship. MMSI: 636013645.

Date/timePositionNaut miles runAvg speedWind from/ knotsBaromVisibWave heightAir tempDewpointWater temp
2015-May-12 20:27N 31°16' W 011°05'6512.4
2015-May-12 15:11N 32°08' W 010°18'912.0
2015-May-12 14:25N 32°15' W 010°11'1112.4
2015-May-12 13:31N 32°24' W 010°03'1712.1
2015-May-12 12:07N 32°37' W 009°51'711.8
2015-May-12 11:30N 32°42' W 009°45'1212.3
2015-May-12 10:31N 32°51' W 009°35'1212.3
2015-May-12 09:30N 33°00' W 009°25'1412.1
2015-May-12 08:23N 33°10' W 009°14'1012.2
2015-May-12 07:32N 33°17' W 009°05'1212.2
2015-May-12 06:33N 33°26' W 008°55'1212.2
2015-May-12 05:33N 33°35' W 008°45'1212.2
2015-May-12 04:34N 33°44' W 008°35'1312.1
2015-May-12 03:31N 33°53' W 008°24'1111.9
2015-May-12 02:33N 34°01' W 008°15'1311.9
2015-May-12 01:30N 34°10' W 008°04'1312.1
2015-May-12 00:25N 34°20' W 007°54'1011.9
2015-May-11 23:32N 34°27' W 007°45'3912.2
2015-May-11 20:22N 34°55' W 007°12'1312.4
2015-May-11 19:18N 35°05' W 007°01'1012.6
2015-May-11 18:32N 35°12' W 006°53'2712.7
2015-May-11 16:22N 35°32' W 006°30'5812.0
2015-May-11 11:33N 36°00' W 005°28'7 5.3
2015-May-11 10:18N 36°06' W 005°24'0 0.0
2015-May-11 08:06N 36°06' W 005°24'0 0.0
2015-May-11 06:33N 36°06' W 005°24'0 0.1
2015-May-11 05:33N 36°06' W 005°24'0 0.0
2015-May-11 04:33N 36°06' W 005°24'0 0.1
2015-May-11 03:30N 36°06' W 005°24'1 1.4
2015-May-11 02:33N 36°06' W 005°23'5 5.0
2015-May-11 01:33N 36°06' W 005°16'12012.0
2015-May-10 15:33N 36°22' W 002°49'1313.0
2015-May-10 14:33N 36°24' W 002°33'1312.9
2015-May-10 13:33N 36°25' W 002°17'3012.7
2015-May-10 11:14N 36°41' W 001°46'912.7
2015-May-10 10:33N 36°46' W 001°37'3012.8
2015-May-10 08:15N 37°04' W 001°08'1013.1
2015-May-10 07:30N 37°10' W 000°59'1313.2
2015-May-10 06:33N 37°17' W 000°46'1413.6
2015-May-10 05:32N 37°25' W 000°32'1313.1
2015-May-10 04:33N 37°34' W 000°20'1413.3
2015-May-10 03:30N 37°46' W 000°10'1313.2
2015-May-10 02:33N 37°56' W 000°00'1312.9
2015-May-10 01:33N 38°06' E 000°09'1313.0
2015-May-10 00:34N 38°17' E 000°19'1312.8
2015-May-09 23:33N 38°27' E 000°29'1913.0
2015-May-09 22:06N 38°42' E 000°43'712.7
2015-May-09 21:33N 38°48' E 000°48'1312.9
2015-May-09 20:33N 38°59' E 000°58'1413.1
2015-May-09 19:31N 39°10' E 001°08'1313.1
2015-May-09 18:33N 39°20' E 001°17'1413.7
2015-May-09 17:33N 39°31' E 001°28'1313.0
2015-May-09 16:33N 39°42' E 001°38'1312.8
2015-May-09 15:33N 39°52' E 001°47'1313.0
2015-May-09 14:33N 40°02' E 001°57'1313.1
2015-May-09 13:33N 40°13' E 002°07'1312.8
2015-May-09 12:33N 40°23' E 002°17'1312.6
2015-May-09 11:33N 40°34' E 002°27'1312.4
2015-May-09 10:33N 40°44' E 002°37'1313.5
2015-May-09 09:33N 40°55' E 002°47'1414.4
2015-May-09 08:33N 41°06' E 002°58'3 2.6
2015-May-09 07:33N 41°08' E 003°00'15613.0
2015-May-08 19:33N 43°17' E 004°59'7 7.1
2015-May-08 18:33N 43°24' E 004°60'0 0.1
2015-May-08 17:30N 43°24' E 004°60'0 0.0
2015-May-08 16:30N 43°24' E 004°60'0 0.0
2015-May-08 15:33N 43°24' E 004°60'0 0.0
2015-May-08 14:30N 43°24' E 004°60'0 0.0
2015-May-08 13:30N 43°24' E 004°60'0 0.0
2015-May-08 12:30N 43°24' E 004°60'0 0.0
2015-May-08 11:33N 43°24' E 004°60'0 0.0
2015-May-08 10:30N 43°24' E 004°60'0 0.0
2015-May-08 09:33N 43°24' E 004°60'0 0.0
2015-May-08 08:33N 43°24' E 004°60'0 0.0
2015-May-08 07:33N 43°24' E 004°60'0 0.0
2015-May-08 06:33N 43°24' E 004°60'0 0.0
2015-May-08 05:33N 43°24' E 004°60'0 0.0
2015-May-08 04:30N 43°24' E 004°60'0 0.0
2015-May-08 03:33N 43°24' E 004°60'0 0.0
2015-May-08 02:33N 43°24' E 004°60'0 0.0
2015-May-08 01:33N 43°24' E 004°60'0 0.0
2015-May-08 00:33N 43°24' E 004°60'0 0.0
2015-May-07 23:33N 43°24' E 004°60'0 0.0
2015-May-07 22:33N 43°24' E 004°60'0 0.0
2015-May-07 21:33N 43°24' E 004°60'0 0.0
2015-May-07 20:30N 43°24' E 004°60'0 0.0
2015-May-07 19:33N 43°24' E 004°60'0 0.0
2015-May-07 18:33N 43°24' E 004°60'0 0.0
2015-May-07 17:33N 43°24' E 004°60'0 0.0
2015-May-07 16:33N 43°24' E 004°60'0 0.0
2015-May-07 15:33N 43°24' E 004°60'0 0.0
2015-May-07 14:33N 43°24' E 004°60'0 0.0
2015-May-07 13:33N 43°24' E 004°60'0 0.0
2015-May-07 12:33N 43°24' E 004°60'0 0.0
2015-May-07 11:30N 43°24' E 004°60'0 0.0
2015-May-07 10:33N 43°24' E 004°60'0 0.0
2015-May-07 09:33N 43°24' E 004°60'0 0.0
2015-May-07 08:33N 43°24' E 004°60'0 0.0
2015-May-07 07:33N 43°24' E 004°60'0 0.0
2015-May-07 06:33N 43°24' E 004°60'0 0.0
2015-May-07 05:33N 43°24' E 004°60'0 0.0
2015-May-07 04:30N 43°24' E 004°60'0 0.0
2015-May-07 03:30N 43°24' E 004°60'0 0.0
2015-May-07 02:33N 43°24' E 004°60'0 0.0
2015-May-07 01:30N 43°24' E 004°60'0 0.0
2015-May-07 00:33N 43°24' E 004°60'0 0.0
2015-May-06 23:33N 43°24' E 004°60'0 0.0
2015-May-06 22:33N 43°24' E 004°60'0 0.0
2015-May-06 21:33N 43°24' E 004°60'0 0.0
2015-May-06 20:30N 43°24' E 004°60'0 0.0
2015-May-06 19:33N 43°24' E 004°60'0 0.0
2015-May-06 18:33N 43°24' E 004°60'0 0.0
2015-May-06 17:33N 43°24' E 004°60'0 0.0
2015-May-06 16:33N 43°24' E 004°60'0 0.0
2015-May-06 15:33N 43°24' E 004°60'0 0.0
2015-May-06 14:33N 43°24' E 004°60'0 0.0
2015-May-06 13:33N 43°24' E 004°60'0 0.0
2015-May-06 12:33N 43°24' E 004°60'0 0.0
2015-May-06 11:33N 43°24' E 004°60'0 0.0
2015-May-06 10:33N 43°24' E 004°60'0 0.0
2015-May-06 09:33N 43°24' E 004°60'0 0.0
2015-May-06 08:24N 43°24' E 004°60'0 0.0
2015-May-06 07:30N 43°24' E 004°60'0 0.0
2015-May-06 06:33N 43°24' E 004°60'0 0.0
2015-May-06 05:33N 43°24' E 004°60'0 0.0
2015-May-06 04:33N 43°24' E 004°60'0 0.0
2015-May-06 03:33N 43°24' E 004°60'0 0.0
2015-May-06 02:33N 43°24' E 004°60'0 0.0
2015-May-06 01:33N 43°24' E 004°60'0 0.0
2015-May-06 00:33N 43°24' E 004°60'0 0.0
2015-May-05 23:33N 43°24' E 004°60'0 0.0
2015-May-05 22:30N 43°24' E 004°60'0 0.0
2015-May-05 21:33N 43°24' E 004°60'0 0.0
2015-May-05 20:33N 43°24' E 004°60'0 0.0
2015-May-05 19:33N 43°24' E 004°60'0 0.0
2015-May-05 18:30N 43°24' E 004°60'0 0.0
2015-May-05 17:33N 43°24' E 004°60'0 0.0
2015-May-05 16:33N 43°24' E 004°60'0 0.0
2015-May-05 15:33N 43°24' E 004°60'0 0.0
2015-May-05 14:33N 43°24' E 004°60'0 0.0
2015-May-05 13:33N 43°24' E 004°60'0 0.0
2015-May-05 12:30N 43°24' E 004°60'0 0.0
2015-May-05 11:33N 43°24' E 004°60'0 0.0
2015-May-05 10:33N 43°24' E 004°60'0 0.0
2015-May-05 09:33N 43°24' E 004°60'0 0.0
2015-May-05 08:33N 43°24' E 004°60'0 0.0
2015-May-05 07:33N 43°24' E 004°60'0 0.0
2015-May-05 06:33N 43°24' E 004°60'0 0.0
2015-May-05 05:33N 43°24' E 004°60'0 0.0
2015-May-05 04:33N 43°24' E 004°60'0 0.0
2015-May-05 03:30N 43°24' E 004°60'0 0.0
2015-May-05 02:33N 43°24' E 004°60'0 0.0
2015-May-05 01:33N 43°24' E 004°60'0 0.0
2015-May-05 00:24N 43°24' E 004°60'0 0.0
2015-May-04 23:30N 43°24' E 004°60'0 0.0
2015-May-04 22:30N 43°24' E 004°60'0 0.0
2015-May-04 21:33N 43°24' E 004°60'0 0.0
2015-May-04 20:33N 43°24' E 004°60'0 0.0
2015-May-04 19:33N 43°24' E 004°60'0 0.0
2015-May-04 18:33N 43°24' E 004°60'0 0.0
2015-May-04 17:33N 43°24' E 004°60'0 0.0
2015-May-04 16:33N 43°24' E 004°60'0 0.0
2015-May-04 15:30N 43°24' E 004°60'0 0.0
2015-May-04 14:33N 43°24' E 004°60'0 0.0
2015-May-04 13:33N 43°24' E 004°60'0 0.0
2015-May-04 12:33N 43°24' E 004°60'0 0.0
2015-May-04 11:27N 43°24' E 004°60'0 0.0
2015-May-04 10:24N 43°24' E 004°60'0 0.0
2015-May-04 09:24N 43°24' E 004°60'0 0.0
2015-May-04 08:33N 43°24' E 004°60'0 0.0
2015-May-04 07:30N 43°24' E 004°60'0 0.0
2015-May-04 06:33N 43°24' E 004°60'0 0.0
2015-May-04 05:33N 43°24' E 004°60'0 0.0
2015-May-04 04:33N 43°24' E 004°60'0 0.0
2015-May-04 03:33N 43°24' E 004°60'0 0.0
2015-May-04 02:33N 43°24' E 004°60'0 0.0
2015-May-04 01:33N 43°24' E 004°60'0 0.0
2015-May-04 00:33N 43°24' E 004°60'0 0.0
2015-May-03 23:33N 43°24' E 004°60'0 0.0
2015-May-03 22:33N 43°24' E 004°60'4 4.4
2015-May-03 21:33N 43°19' E 004°59'3113.4
2015-May-03 19:13N 42°50' E 004°44'6914.5
2015-May-03 14:27N 41°52' E 003°53'1314.4
2015-May-03 13:34N 41°41' E 003°45'1414.4
2015-May-03 12:33N 41°29' E 003°34'1614.8
2015-May-03 11:28N 41°15' E 003°22'1514.9
2015-May-03 10:27N 41°03' E 003°11'1314.9
2015-May-03 09:33N 40°51' E 003°02'1515.0
2015-May-03 08:33N 40°39' E 002°51'1514.8
2015-May-03 07:33N 40°26' E 002°41'1614.5
2015-May-03 06:27N 40°13' E 002°29'1314.6
2015-May-03 05:33N 40°02' E 002°20'1515.4
2015-May-03 04:33N 39°49' E 002°10'1515.0
2015-May-03 03:32N 39°36' E 001°59'1515.0
2015-May-03 02:33N 39°21' E 001°56'1514.8
2015-May-03 01:33N 39°07' E 001°53'1514.4
2015-May-03 00:33N 38°52' E 001°50'1514.7
2015-May-02 23:32N 38°38' E 001°47'1414.5
2015-May-02 22:33N 38°25' E 001°38'1915.0
2015-May-02 21:19N 38°09' E 001°26'1114.6
2015-May-02 20:32N 37°59' E 001°19'  
Track history (hours):
 
Tides and Currents Weather Stations Pressure Air Temp Water Temp Dewpoint Dewpoint Depression Visibility Wind Speed Wind Dir Waves Ship Positions

Gandhi

Last reported at 2015-May-12 20:27 UTC. Time now 2015-May-22 11:33 UTC.
Position N 31°16' W 011°05'.
Warning: this ship's position is 9 days out of date.

Length 180 m; draft 10.2 m.

Type: Ship. MMSI: 636013645.

Date/timePositionNaut miles runAvg speedWind from/ knotsBaromVisibWave heightAir tempDewpointWater temp
2015-May-12 20:27N 31°16' W 011°05'6512.4
2015-May-12 15:11N 32°08' W 010°18'912.0
2015-May-12 14:25N 32°15' W 010°11'1112.4
2015-May-12 13:31N 32°24' W 010°03'1712.1
2015-May-12 12:07N 32°37' W 009°51'711.8
2015-May-12 11:30N 32°42' W 009°45'1212.3
2015-May-12 10:31N 32°51' W 009°35'1212.3
2015-May-12 09:30N 33°00' W 009°25'1412.1
2015-May-12 08:23N 33°10' W 009°14'1012.2
2015-May-12 07:32N 33°17' W 009°05'1212.2
2015-May-12 06:33N 33°26' W 008°55'1212.2
2015-May-12 05:33N 33°35' W 008°45'1212.2
2015-May-12 04:34N 33°44' W 008°35'1312.1
2015-May-12 03:31N 33°53' W 008°24'1111.9
2015-May-12 02:33N 34°01' W 008°15'1311.9
2015-May-12 01:30N 34°10' W 008°04'1312.1
2015-May-12 00:25N 34°20' W 007°54'1011.9
2015-May-11 23:32N 34°27' W 007°45'3912.2
2015-May-11 20:22N 34°55' W 007°12'1312.4
2015-May-11 19:18N 35°05' W 007°01'1012.6
2015-May-11 18:32N 35°12' W 006°53'2712.7
2015-May-11 16:22N 35°32' W 006°30'5812.0
2015-May-11 11:33N 36°00' W 005°28'7 5.3
2015-May-11 10:18N 36°06' W 005°24'0 0.0
2015-May-11 08:06N 36°06' W 005°24'0 0.0
2015-May-11 06:33N 36°06' W 005°24'0 0.1
2015-May-11 05:33N 36°06' W 005°24'0 0.0
2015-May-11 04:33N 36°06' W 005°24'0 0.1
2015-May-11 03:30N 36°06' W 005°24'1 1.4
2015-May-11 02:33N 36°06' W 005°23'5 5.0
2015-May-11 01:33N 36°06' W 005°16'12012.0
2015-May-10 15:33N 36°22' W 002°49'1313.0
2015-May-10 14:33N 36°24' W 002°33'1312.9
2015-May-10 13:33N 36°25' W 002°17'3012.7
2015-May-10 11:14N 36°41' W 001°46'912.7
2015-May-10 10:33N 36°46' W 001°37'3012.8
2015-May-10 08:15N 37°04' W 001°08'1013.1
2015-May-10 07:30N 37°10' W 000°59'1313.2
2015-May-10 06:33N 37°17' W 000°46'1413.6
2015-May-10 05:32N 37°25' W 000°32'1313.1
2015-May-10 04:33N 37°34' W 000°20'1413.3
2015-May-10 03:30N 37°46' W 000°10'1313.2
2015-May-10 02:33N 37°56' W 000°00'1312.9
2015-May-10 01:33N 38°06' E 000°09'1313.0
2015-May-10 00:34N 38°17' E 000°19'1312.8
2015-May-09 23:33N 38°27' E 000°29'1913.0
2015-May-09 22:06N 38°42' E 000°43'712.7
2015-May-09 21:33N 38°48' E 000°48'1312.9
2015-May-09 20:33N 38°59' E 000°58'1413.1
2015-May-09 19:31N 39°10' E 001°08'1313.1
2015-May-09 18:33N 39°20' E 001°17'1413.7
2015-May-09 17:33N 39°31' E 001°28'1313.0
2015-May-09 16:33N 39°42' E 001°38'1312.8
2015-May-09 15:33N 39°52' E 001°47'1313.0
2015-May-09 14:33N 40°02' E 001°57'1313.1
2015-May-09 13:33N 40°13' E 002°07'1312.8
2015-May-09 12:33N 40°23' E 002°17'1312.6
2015-May-09 11:33N 40°34' E 002°27'1312.4
2015-May-09 10:33N 40°44' E 002°37'1313.5
2015-May-09 09:33N 40°55' E 002°47'1414.4
2015-May-09 08:33N 41°06' E 002°58'3 2.6
2015-May-09 07:33N 41°08' E 003°00'15613.0
2015-May-08 19:33N 43°17' E 004°59'7 7.1
2015-May-08 18:33N 43°24' E 004°60'0 0.1
2015-May-08 17:30N 43°24' E 004°60'0 0.0
2015-May-08 16:30N 43°24' E 004°60'0 0.0
2015-May-08 15:33N 43°24' E 004°60'0 0.0
2015-May-08 14:30N 43°24' E 004°60'0 0.0
2015-May-08 13:30N 43°24' E 004°60'0 0.0
2015-May-08 12:30N 43°24' E 004°60'0 0.0
2015-May-08 11:33N 43°24' E 004°60'0 0.0
2015-May-08 10:30N 43°24' E 004°60'0 0.0
2015-May-08 09:33N 43°24' E 004°60'0 0.0
2015-May-08 08:33N 43°24' E 004°60'0 0.0
2015-May-08 07:33N 43°24' E 004°60'0 0.0
2015-May-08 06:33N 43°24' E 004°60'0 0.0
2015-May-08 05:33N 43°24' E 004°60'0 0.0
2015-May-08 04:30N 43°24' E 004°60'0 0.0
2015-May-08 03:33N 43°24' E 004°60'0 0.0
2015-May-08 02:33N 43°24' E 004°60'0 0.0
2015-May-08 01:33N 43°24' E 004°60'0 0.0
2015-May-08 00:33N 43°24' E 004°60'0 0.0
2015-May-07 23:33N 43°24' E 004°60'0 0.0
2015-May-07 22:33N 43°24' E 004°60'0 0.0
2015-May-07 21:33N 43°24' E 004°60'0 0.0
2015-May-07 20:30N 43°24' E 004°60'0 0.0
2015-May-07 19:33N 43°24' E 004°60'0 0.0
2015-May-07 18:33N 43°24' E 004°60'0 0.0
2015-May-07 17:33N 43°24' E 004°60'0 0.0
2015-May-07 16:33N 43°24' E 004°60'0 0.0
2015-May-07 15:33N 43°24' E 004°60'0 0.0
2015-May-07 14:33N 43°24' E 004°60'0 0.0
2015-May-07 13:33N 43°24' E 004°60'0 0.0
2015-May-07 12:33N 43°24' E 004°60'0 0.0
2015-May-07 11:30N 43°24' E 004°60'0 0.0
2015-May-07 10:33N 43°24' E 004°60'0 0.0
2015-May-07 09:33N 43°24' E 004°60'0 0.0
2015-May-07 08:33N 43°24' E 004°60'0 0.0
2015-May-07 07:33N 43°24' E 004°60'0 0.0
2015-May-07 06:33N 43°24' E 004°60'0 0.0
2015-May-07 05:33N 43°24' E 004°60'0 0.0
2015-May-07 04:30N 43°24' E 004°60'0 0.0
2015-May-07 03:30N 43°24' E 004°60'0 0.0
2015-May-07 02:33N 43°24' E 004°60'0 0.0
2015-May-07 01:30N 43°24' E 004°60'0 0.0
2015-May-07 00:33N 43°24' E 004°60'0 0.0
2015-May-06 23:33N 43°24' E 004°60'0 0.0
2015-May-06 22:33N 43°24' E 004°60'0 0.0
2015-May-06 21:33N 43°24' E 004°60'0 0.0
2015-May-06 20:30N 43°24' E 004°60'0 0.0
2015-May-06 19:33N 43°24' E 004°60'0 0.0
2015-May-06 18:33N 43°24' E 004°60'0 0.0
2015-May-06 17:33N 43°24' E 004°60'0 0.0
2015-May-06 16:33N 43°24' E 004°60'0 0.0
2015-May-06 15:33N 43°24' E 004°60'0 0.0
2015-May-06 14:33N 43°24' E 004°60'0 0.0
2015-May-06 13:33N 43°24' E 004°60'0 0.0
2015-May-06 12:33N 43°24' E 004°60'0 0.0
2015-May-06 11:33N 43°24' E 004°60'0 0.0
2015-May-06 10:33N 43°24' E 004°60'0 0.0
2015-May-06 09:33N 43°24' E 004°60'0 0.0
2015-May-06 08:24N 43°24' E 004°60'0 0.0
2015-May-06 07:30N 43°24' E 004°60'0 0.0
2015-May-06 06:33N 43°24' E 004°60'0 0.0
2015-May-06 05:33N 43°24' E 004°60'0 0.0
2015-May-06 04:33N 43°24' E 004°60'0 0.0
2015-May-06 03:33N 43°24' E 004°60'0 0.0
2015-May-06 02:33N 43°24' E 004°60'0 0.0
2015-May-06 01:33N 43°24' E 004°60'0 0.0
2015-May-06 00:33N 43°24' E 004°60'0 0.0
2015-May-05 23:33N 43°24' E 004°60'0 0.0
2015-May-05 22:30N 43°24' E 004°60'0 0.0
2015-May-05 21:33N 43°24' E 004°60'0 0.0
2015-May-05 20:33N 43°24' E 004°60'0 0.0
2015-May-05 19:33N 43°24' E 004°60'0 0.0
2015-May-05 18:30N 43°24' E 004°60'0 0.0
2015-May-05 17:33N 43°24' E 004°60'0 0.0
2015-May-05 16:33N 43°24' E 004°60'0 0.0
2015-May-05 15:33N 43°24' E 004°60'0 0.0
2015-May-05 14:33N 43°24' E 004°60'0 0.0
2015-May-05 13:33N 43°24' E 004°60'0 0.0
2015-May-05 12:30N 43°24' E 004°60'0 0.0
2015-May-05 11:33N 43°24' E 004°60'0 0.0
2015-May-05 10:33N 43°24' E 004°60'0 0.0
2015-May-05 09:33N 43°24' E 004°60'0 0.0
2015-May-05 08:33N 43°24' E 004°60'0 0.0
2015-May-05 07:33N 43°24' E 004°60'0 0.0
2015-May-05 06:33N 43°24' E 004°60'0 0.0
2015-May-05 05:33N 43°24' E 004°60'0 0.0
2015-May-05 04:33N 43°24' E 004°60'0 0.0
2015-May-05 03:30N 43°24' E 004°60'0 0.0
2015-May-05 02:33N 43°24' E 004°60'0 0.0
2015-May-05 01:33N 43°24' E 004°60'0 0.0
2015-May-05 00:24N 43°24' E 004°60'0 0.0
2015-May-04 23:30N 43°24' E 004°60'0 0.0
2015-May-04 22:30N 43°24' E 004°60'0 0.0
2015-May-04 21:33N 43°24' E 004°60'0 0.0
2015-May-04 20:33N 43°24' E 004°60'0 0.0
2015-May-04 19:33N 43°24' E 004°60'0 0.0
2015-May-04 18:33N 43°24' E 004°60'0 0.0
2015-May-04 17:33N 43°24' E 004°60'0 0.0
2015-May-04 16:33N 43°24' E 004°60'0 0.0
2015-May-04 15:30N 43°24' E 004°60'0 0.0
2015-May-04 14:33N 43°24' E 004°60'0 0.0
2015-May-04 13:33N 43°24' E 004°60'0 0.0
2015-May-04 12:33N 43°24' E 004°60'0 0.0
2015-May-04 11:27N 43°24' E 004°60'0 0.0
2015-May-04 10:24N 43°24' E 004°60'0 0.0
2015-May-04 09:24N 43°24' E 004°60'0 0.0
2015-May-04 08:33N 43°24' E 004°60'0 0.0
2015-May-04 07:30N 43°24' E 004°60'0 0.0
2015-May-04 06:33N 43°24' E 004°60'0 0.0
2015-May-04 05:33N 43°24' E 004°60'0 0.0
2015-May-04 04:33N 43°24' E 004°60'0 0.0
2015-May-04 03:33N 43°24' E 004°60'0 0.0
2015-May-04 02:33N 43°24' E 004°60'0 0.0
2015-May-04 01:33N 43°24' E 004°60'0 0.0
2015-May-04 00:33N 43°24' E 004°60'0 0.0
2015-May-03 23:33N 43°24' E 004°60'0 0.0
2015-May-03 22:33N 43°24' E 004°60'4 4.4
2015-May-03 21:33N 43°19' E 004°59'3113.4
2015-May-03 19:13N 42°50' E 004°44'6914.5
2015-May-03 14:27N 41°52' E 003°53'1314.4
2015-May-03 13:34N 41°41' E 003°45'1414.4
2015-May-03 12:33N 41°29' E 003°34'1614.8
2015-May-03 11:28N 41°15' E 003°22'1514.9
2015-May-03 10:27N 41°03' E 003°11'1314.9
2015-May-03 09:33N 40°51' E 003°02'1515.0
2015-May-03 08:33N 40°39' E 002°51'1514.8
2015-May-03 07:33N 40°26' E 002°41'1614.5
2015-May-03 06:27N 40°13' E 002°29'1314.6
2015-May-03 05:33N 40°02' E 002°20'1515.4
2015-May-03 04:33N 39°49' E 002°10'1515.0
2015-May-03 03:32N 39°36' E 001°59'1515.0
2015-May-03 02:33N 39°21' E 001°56'1514.8
2015-May-03 01:33N 39°07' E 001°53'1514.4
2015-May-03 00:33N 38°52' E 001°50'1514.7
2015-May-02 23:32N 38°38' E 001°47'1414.5
2015-May-02 22:33N 38°25' E 001°38'1915.0
2015-May-02 21:19N 38°09' E 001°26'1114.6
2015-May-02 20:32N 37°59' E 001°19'  

Dump ship's entire track history